createdAt,value
2022-09-04T00:03:15.689Z,18.50
2022-09-04T00:05:53.949Z,18.50
2022-09-04T00:09:07.251Z,18.50
2022-09-04T00:11:57.733Z,18.40
2022-09-04T00:14:50.628Z,18.40
2022-09-04T00:17:50.071Z,18.40
2022-09-04T00:20:46.398Z,18.30
2022-09-04T00:23:53.333Z,18.30
2022-09-04T00:26:50.184Z,18.30
2022-09-04T00:29:37.981Z,18.20
2022-09-04T00:32:29.413Z,18.20
2022-09-04T00:35:23.138Z,18.20
2022-09-04T00:38:08.536Z,18.10
2022-09-04T00:41:02.615Z,18.10
2022-09-04T00:44:00.636Z,18.10
2022-09-04T00:47:10.823Z,18.00
2022-09-04T00:50:07.600Z,18.00
2022-09-04T00:53:28.246Z,18.00
2022-09-04T00:56:55.733Z,17.90
2022-09-04T00:59:42.876Z,17.90
2022-09-04T01:02:26.651Z,17.80
2022-09-04T01:05:33.475Z,17.80
2022-09-04T01:08:44.408Z,17.80
2022-09-04T01:11:33.948Z,17.70
2022-09-04T01:14:18.044Z,17.70
2022-09-04T01:17:16.084Z,17.70
2022-09-04T01:20:27.896Z,17.70
2022-09-04T01:23:30.552Z,17.70
2022-09-04T01:26:17.535Z,17.70
2022-09-04T01:29:33.421Z,17.60
2022-09-04T01:32:43.622Z,17.60
2022-09-04T01:35:48.840Z,17.60
2022-09-04T01:38:53.587Z,17.60
2022-09-04T01:41:40.481Z,17.60
2022-09-04T01:44:15.437Z,17.60
2022-09-04T01:47:02.444Z,17.50
2022-09-04T01:50:14.950Z,17.50
2022-09-04T01:53:24.488Z,17.50
2022-09-04T01:56:16.227Z,17.50
2022-09-04T01:58:58.752Z,17.40
2022-09-04T02:01:50.777Z,17.40
2022-09-04T02:04:41.082Z,17.40
2022-09-04T02:07:40.164Z,17.40
2022-09-04T02:10:31.024Z,17.40
2022-09-04T02:13:51.512Z,17.30
2022-09-04T02:16:38.775Z,17.30
2022-09-04T02:19:57.521Z,17.30
2022-09-04T02:22:50.540Z,17.30
2022-09-04T02:25:51.693Z,17.20
2022-09-04T02:28:55.190Z,17.20
2022-09-04T02:31:51.278Z,17.20
2022-09-04T02:34:46.881Z,17.20
2022-09-04T02:37:24.802Z,17.20
2022-09-04T02:40:30.766Z,17.10
2022-09-04T02:43:56.261Z,17.10
2022-09-04T02:46:43.291Z,17.10
2022-09-04T02:49:58.516Z,17.00
2022-09-04T02:53:08.271Z,17.00
2022-09-04T02:56:10.301Z,17.00
2022-09-04T02:59:31.266Z,16.90
2022-09-04T03:02:19.532Z,16.90
2022-09-04T03:05:18.066Z,16.90
2022-09-04T03:08:09.163Z,16.90
2022-09-04T03:11:06.677Z,16.80
2022-09-04T03:13:51.072Z,16.80
2022-09-04T03:16:50.504Z,16.80
2022-09-04T03:19:35.101Z,16.80
2022-09-04T03:22:24.315Z,16.70
2022-09-04T03:25:56.589Z,16.70
2022-09-04T03:29:21.955Z,16.70
2022-09-04T03:32:17.310Z,16.70
2022-09-04T03:35:15.893Z,16.70
2022-09-04T03:37:59.108Z,16.60
2022-09-04T03:40:33.949Z,16.60
2022-09-04T03:43:39.136Z,16.60
2022-09-04T03:46:47.594Z,16.60
2022-09-04T03:49:47.734Z,16.60
2022-09-04T03:52:33.481Z,16.50
2022-09-04T03:55:26.577Z,16.50
2022-09-04T03:58:24.879Z,16.50
2022-09-04T04:01:54.154Z,16.50
2022-09-04T04:05:18.973Z,16.50
2022-09-04T04:08:16.347Z,16.40
2022-09-04T04:11:16.165Z,16.40
2022-09-04T04:13:59.866Z,16.40
2022-09-04T04:17:14.844Z,16.40
2022-09-04T04:20:22.945Z,16.30
2022-09-04T04:23:28.221Z,16.30
2022-09-04T04:26:14.118Z,16.20
2022-09-04T04:29:58.189Z,16.30
2022-09-04T04:32:49.755Z,16.20
2022-09-04T04:35:48.253Z,16.20
2022-09-04T04:38:39.801Z,16.20
2022-09-04T04:42:05.566Z,16.20
2022-09-04T04:45:26.043Z,16.20
2022-09-04T04:48:41.311Z,16.20
2022-09-04T04:51:41.532Z,16.20
2022-09-04T04:54:57.001Z,16.20
2022-09-04T04:58:00.551Z,16.20
2022-09-04T05:00:53.333Z,16.20
2022-09-04T05:03:53.893Z,16.20
2022-09-04T05:06:41.786Z,16.30
2022-09-04T05:10:08.614Z,16.20
2022-09-04T05:12:55.349Z,16.30
2022-09-04T05:16:08.441Z,16.30
2022-09-04T05:19:00.653Z,16.30
2022-09-04T05:21:59.030Z,16.30
2022-09-04T05:25:00.200Z,16.30
2022-09-04T05:27:56.796Z,16.40
2022-09-04T05:30:52.482Z,16.40
2022-09-04T05:34:10.165Z,16.40
2022-09-04T05:37:06.652Z,16.40
2022-09-04T05:40:04.956Z,16.40
2022-09-04T05:43:05.476Z,16.40
2022-09-04T05:45:53.416Z,16.50
2022-09-04T05:48:43.184Z,16.50
2022-09-04T05:51:58.470Z,16.50
2022-09-04T05:55:16.415Z,16.60
2022-09-04T05:58:25.881Z,16.60
2022-09-04T06:01:58.817Z,16.70
2022-09-04T06:05:05.263Z,16.70
2022-09-04T06:07:55.458Z,16.80
2022-09-04T06:11:07.576Z,16.80
2022-09-04T06:14:01.112Z,16.80
2022-09-04T06:16:54.437Z,16.90
2022-09-04T06:20:03.397Z,16.90
2022-09-04T06:23:06.317Z,17.00
2022-09-04T06:26:15.384Z,17.00
2022-09-04T06:29:06.026Z,17.10
2022-09-04T06:31:56.782Z,17.10
2022-09-04T06:35:02.448Z,17.20
2022-09-04T06:38:30.104Z,17.20
2022-09-04T06:41:29.440Z,17.30
2022-09-04T06:44:48.849Z,17.30
2022-09-04T06:47:59.724Z,17.40
2022-09-04T06:50:40.630Z,17.50
2022-09-04T06:53:48.052Z,17.60
2022-09-04T06:56:55.873Z,17.60
2022-09-04T06:59:59.337Z,17.70
2022-09-04T07:03:13.797Z,17.80
2022-09-04T07:06:13.031Z,17.80
2022-09-04T07:09:16.630Z,17.90
2022-09-04T07:12:27.948Z,18.00
2022-09-04T07:15:45.838Z,18.00
2022-09-04T07:19:04.423Z,18.10
2022-09-04T07:22:06.912Z,18.20
2022-09-04T07:24:51.145Z,18.30
2022-09-04T07:28:08.946Z,18.40
2022-09-04T07:30:51.534Z,18.50
2022-09-04T07:33:45.951Z,18.50
2022-09-04T07:36:48.693Z,18.60
2022-09-04T07:39:52.331Z,18.70
2022-09-04T07:42:38.902Z,18.70
2022-09-04T07:45:54.879Z,18.80
2022-09-04T07:48:40.938Z,18.80
2022-09-04T07:51:27.531Z,18.90
2022-09-04T07:54:45.110Z,19.00
2022-09-04T07:57:51.291Z,19.00
2022-09-04T08:00:26.930Z,19.20
2022-09-04T08:03:33.176Z,19.30
2022-09-04T08:06:24.309Z,19.40
2022-09-04T08:09:23.457Z,19.50
2022-09-04T08:12:29.329Z,19.50
2022-09-04T08:15:23.242Z,19.60
2022-09-04T08:18:26.005Z,19.70
2022-09-04T08:21:29.077Z,19.90
2022-09-04T08:24:18.445Z,19.90
2022-09-04T08:27:27.276Z,20.00
2022-09-04T08:30:09.346Z,20.10
2022-09-04T08:33:21.725Z,20.20
2022-09-04T08:36:21.747Z,20.30
2022-09-04T08:39:45.352Z,20.40
2022-09-04T08:43:04.065Z,20.50
2022-09-04T08:45:45.057Z,20.60
2022-09-04T08:48:56.742Z,20.80
2022-09-04T08:52:02.012Z,20.90
2022-09-04T08:54:55.128Z,21.10
2022-09-04T08:57:49.407Z,21.40
2022-09-04T09:00:55.645Z,21.70
2022-09-04T09:04:15.049Z,21.90
2022-09-04T09:07:21.056Z,22.00
2022-09-04T09:10:31.321Z,22.20
2022-09-04T09:13:27.611Z,22.40
2022-09-04T09:16:02.549Z,22.50
2022-09-04T09:19:17.645Z,22.60
2022-09-04T09:22:15.921Z,22.70
2022-09-04T09:25:25.353Z,22.80
2022-09-04T09:28:49.039Z,22.80
2022-09-04T09:31:54.903Z,22.90
2022-09-04T09:34:57.626Z,23.00
2022-09-04T09:38:11.858Z,23.00
2022-09-04T09:41:18.485Z,22.90
2022-09-04T09:44:24.285Z,23.00
2022-09-04T09:47:29.546Z,23.30
2022-09-04T09:50:20.938Z,23.50
2022-09-04T09:53:17.519Z,23.70
2022-09-04T09:56:17.197Z,23.80
2022-09-04T09:59:24.403Z,24.00
2022-09-04T10:02:38.304Z,24.20
2022-09-04T10:06:10.971Z,24.20
2022-09-04T10:08:57.989Z,24.30
2022-09-04T10:12:12.342Z,24.30
2022-09-04T10:15:25.650Z,24.40
2022-09-04T10:18:42.022Z,24.30
2022-09-04T10:21:29.034Z,24.30
2022-09-04T10:24:33.261Z,24.20
2022-09-04T10:27:43.747Z,24.30
2022-09-04T10:30:24.486Z,24.40
2022-09-04T10:33:19.321Z,24.50
2022-09-04T10:36:19.453Z,24.60
2022-09-04T10:39:39.156Z,24.70
2022-09-04T10:43:12.824Z,24.90
2022-09-04T10:46:23.495Z,25.10
2022-09-04T10:49:34.347Z,25.10
2022-09-04T10:52:31.442Z,25.10
2022-09-04T10:55:36.809Z,25.30
2022-09-04T10:59:01.045Z,25.50
2022-09-04T11:02:16.866Z,25.60
2022-09-04T11:05:41.790Z,25.80
2022-09-04T11:08:45.961Z,25.90
2022-09-04T11:11:58.651Z,26.20
2022-09-04T11:15:30.121Z,26.30
2022-09-04T11:18:27.985Z,26.50
2022-09-04T11:21:40.263Z,26.70
2022-09-04T11:25:02.162Z,26.80
2022-09-04T11:27:59.143Z,27.20
2022-09-04T11:30:48.464Z,27.60
2022-09-04T11:33:39.034Z,27.80
2022-09-04T11:37:15.462Z,27.90
2022-09-04T11:40:20.254Z,28.20
2022-09-04T11:43:26.730Z,28.30
2022-09-04T11:46:29.169Z,28.40
2022-09-04T11:49:29.905Z,28.50
2022-09-04T11:52:53.146Z,28.60
2022-09-04T11:55:49.471Z,28.50
2022-09-04T11:59:04.990Z,28.60
2022-09-04T12:02:01.482Z,28.70
2022-09-04T12:04:56.033Z,28.80
2022-09-04T12:08:07.201Z,28.90
2022-09-04T12:10:55.804Z,29.00
2022-09-04T12:13:47.159Z,29.00
2022-09-04T12:16:53.399Z,28.90
2022-09-04T12:20:01.990Z,28.90
2022-09-04T12:23:17.148Z,28.90
2022-09-04T12:26:22.293Z,28.70
2022-09-04T12:29:21.430Z,28.50
2022-09-04T12:32:31.553Z,28.30
2022-09-04T12:35:06.861Z,28.20
2022-09-04T12:38:03.597Z,28.30
2022-09-04T12:41:12.075Z,28.60
2022-09-04T12:44:15.649Z,28.60
2022-09-04T12:47:21.512Z,28.80
2022-09-04T12:50:28.305Z,29.00
2022-09-04T12:53:58.311Z,29.50
2022-09-04T12:56:49.290Z,30.10
2022-09-04T13:00:15.454Z,30.30
2022-09-04T13:03:38.184Z,30.40
2022-09-04T13:06:56.988Z,30.60
2022-09-04T13:09:55.860Z,30.90
2022-09-04T13:13:01.287Z,31.10
2022-09-04T13:15:48.569Z,31.10
2022-09-04T13:19:00.201Z,31.20
2022-09-04T13:21:51.854Z,31.40
2022-09-04T13:24:51.128Z,31.80
2022-09-04T13:28:00.180Z,32.00
2022-09-04T13:30:44.553Z,32.30
2022-09-04T13:33:39.847Z,32.30
2022-09-04T13:36:28.278Z,32.30
2022-09-04T13:39:38.045Z,32.20
2022-09-04T13:43:18.234Z,32.20
2022-09-04T13:46:03.837Z,32.40
2022-09-04T13:48:46.764Z,32.80
2022-09-04T13:51:33.554Z,33.00
2022-09-04T13:54:12.530Z,33.20
2022-09-04T13:57:10.781Z,33.20
2022-09-04T13:59:50.198Z,33.30
2022-09-04T14:02:27.726Z,33.70
2022-09-04T14:05:25.645Z,34.00
2022-09-04T14:08:05.879Z,34.30
2022-09-04T14:11:22.590Z,34.60
2022-09-04T14:14:23.815Z,34.70
2022-09-04T14:16:59.959Z,34.80
2022-09-04T14:19:58.881Z,34.90
2022-09-04T14:22:43.098Z,35.00
2022-09-04T14:26:04.978Z,35.20
2022-09-04T14:28:58.383Z,35.40
2022-09-04T14:31:56.073Z,35.60
2022-09-04T14:34:43.065Z,35.40
2022-09-04T14:38:14.639Z,35.10
2022-09-04T14:41:21.910Z,34.70
2022-09-04T14:44:15.104Z,34.50
2022-09-04T14:47:16.549Z,34.40
2022-09-04T14:49:55.682Z,34.50
2022-09-04T14:52:45.704Z,34.50
2022-09-04T14:55:31.316Z,34.70
2022-09-04T14:58:17.936Z,35.00
2022-09-04T15:01:11.603Z,35.30
2022-09-04T15:04:20.427Z,35.40
2022-09-04T15:07:11.554Z,35.20
2022-09-04T15:09:50.002Z,35.20
2022-09-04T15:12:37.794Z,35.40
2022-09-04T15:15:31.648Z,35.60
2022-09-04T15:18:23.486Z,35.80
2022-09-04T15:21:06.181Z,36.00
2022-09-04T15:23:58.113Z,36.20
2022-09-04T15:27:23.590Z,36.40
2022-09-04T15:30:18.020Z,36.60
2022-09-04T15:33:09.136Z,36.60
2022-09-04T15:36:04.295Z,36.20
2022-09-04T15:38:55.976Z,35.90
2022-09-04T15:41:46.024Z,35.80
2022-09-04T15:44:34.370Z,35.80
2022-09-04T15:47:37.139Z,35.90
2022-09-04T15:50:26.822Z,35.90
2022-09-04T15:53:23.896Z,36.00
2022-09-04T15:56:16.726Z,36.00
2022-09-04T15:59:22.501Z,35.90
2022-09-04T16:02:36.142Z,35.90
2022-09-04T16:05:41.214Z,35.80
2022-09-04T16:08:47.048Z,35.70
2022-09-04T16:11:28.212Z,35.80
2022-09-04T16:14:24.002Z,35.90
2022-09-04T16:17:07.214Z,35.90
2022-09-04T16:20:12.710Z,35.90
2022-09-04T16:22:58.621Z,35.90
2022-09-04T16:25:44.058Z,36.00
2022-09-04T16:28:32.076Z,36.00
2022-09-04T16:31:12.972Z,35.90
2022-09-04T16:33:53.348Z,35.90
2022-09-04T16:36:40.779Z,35.70
2022-09-04T16:39:46.893Z,35.70
2022-09-04T16:42:30.410Z,35.60
2022-09-04T16:45:17.037Z,35.40
2022-09-04T16:48:12.676Z,35.30
2022-09-04T16:51:39.512Z,35.10
2022-09-04T16:54:47.271Z,35.00
2022-09-04T16:58:07.158Z,34.80
2022-09-04T17:01:14.442Z,34.60
2022-09-04T17:04:13.367Z,34.40
2022-09-04T17:07:07.886Z,34.20
2022-09-04T17:10:01.687Z,34.00
2022-09-04T17:12:59.439Z,33.80
2022-09-04T17:16:00.858Z,33.50
2022-09-04T17:18:40.667Z,33.10
2022-09-04T17:27:47.861Z,32.70
2022-09-04T17:29:00.942Z,32.40
2022-09-04T17:29:11.753Z,31.90
2022-09-04T17:31:48.426Z,31.50
2022-09-04T17:40:36.514Z,31.10
2022-09-04T17:40:36.610Z,30.80
2022-09-04T17:41:35.709Z,30.40
2022-09-04T17:44:37.747Z,30.10
2022-09-04T17:47:33.057Z,29.80
2022-09-04T17:50:18.338Z,29.60
2022-09-04T17:53:12.161Z,29.30
2022-09-04T17:56:19.606Z,29.10
2022-09-04T17:59:09.230Z,28.90
2022-09-04T18:01:51.629Z,28.70
2022-09-04T18:04:57.122Z,28.50
2022-09-04T18:08:08.527Z,28.30
2022-09-04T18:10:53.843Z,28.00
2022-09-04T18:14:11.154Z,27.80
2022-09-04T18:17:12.489Z,27.60
2022-09-04T18:19:52.139Z,27.40
2022-09-04T18:22:45.489Z,27.30
2022-09-04T18:25:29.582Z,27.10
2022-09-04T18:28:52.088Z,26.90
2022-09-04T18:37:07.004Z,26.80
2022-09-04T18:37:20.594Z,26.60
2022-09-04T18:38:02.192Z,26.40
2022-09-04T18:43:29.800Z,26.20
2022-09-04T18:50:23.557Z,26.10
2022-09-04T18:50:30.653Z,25.90
2022-09-04T18:51:12.670Z,25.80
2022-09-04T18:53:50.484Z,25.60
2022-09-04T18:56:30.975Z,25.50
2022-09-04T18:59:32.968Z,25.30
2022-09-04T19:02:26.117Z,25.20
2022-09-04T19:05:09.799Z,25.10
2022-09-04T19:07:47.905Z,25.00
2022-09-04T19:10:36.890Z,24.90
2022-09-04T19:13:30.180Z,24.80
2022-09-04T19:16:25.041Z,24.70
2022-09-04T19:19:21.044Z,24.50
2022-09-04T19:22:09.564Z,24.40
2022-09-04T19:24:56.934Z,24.30
2022-09-04T19:27:39.467Z,24.20
2022-09-04T19:30:23.999Z,24.10
2022-09-04T19:33:33.187Z,24.00
2022-09-04T19:36:37.625Z,23.80
2022-09-04T19:45:57.804Z,23.70
2022-09-04T19:46:11.434Z,23.60
2022-09-04T19:46:29.810Z,23.50
2022-09-04T19:52:32.197Z,23.40
2022-09-04T19:53:33.144Z,23.30
2022-09-04T19:56:04.115Z,23.20
2022-09-04T19:58:52.425Z,23.10
2022-09-04T20:01:52.060Z,23.00
2022-09-04T20:04:47.336Z,23.00
2022-09-04T20:07:28.158Z,22.90
2022-09-04T20:10:18.368Z,22.80
2022-09-04T20:13:28.394Z,22.60
2022-09-04T20:16:48.858Z,22.50
2022-09-04T20:20:06.437Z,22.40
2022-09-04T20:22:58.243Z,22.30
2022-09-04T20:25:58.452Z,22.20
2022-09-04T20:29:13.258Z,22.10
2022-09-04T20:32:08.750Z,22.00
2022-09-04T20:34:50.323Z,22.00
2022-09-04T20:37:37.664Z,21.90
2022-09-04T20:40:41.077Z,21.80
2022-09-04T20:43:48.585Z,21.70
2022-09-04T20:52:40.971Z,21.60
2022-09-04T20:53:05.941Z,21.50
2022-09-04T20:53:46.774Z,21.50
2022-09-04T21:00:53.364Z,21.40
2022-09-04T21:03:18.529Z,21.30
2022-09-04T21:03:34.241Z,21.20
2022-09-04T21:06:27.874Z,21.10
2022-09-04T21:09:24.605Z,21.00
2022-09-04T21:12:41.613Z,20.90
2022-09-04T21:15:46.235Z,20.90
2022-09-04T21:18:41.712Z,20.80
2022-09-04T21:22:32.263Z,20.80
2022-09-04T21:25:45.193Z,20.70
2022-09-04T21:28:46.459Z,20.60
2022-09-04T21:32:22.591Z,20.50
2022-09-04T21:35:18.488Z,20.50
2022-09-04T21:39:07.332Z,20.40
2022-09-04T21:42:25.040Z,20.30
2022-09-04T21:45:28.109Z,20.20
2022-09-04T21:48:17.846Z,20.10
2022-09-04T21:51:01.383Z,20.10
2022-09-04T21:53:47.985Z,20.10
2022-09-04T22:02:31.937Z,20.00
2022-09-04T22:02:37.307Z,20.00
2022-09-04T22:03:35.250Z,19.90
2022-09-04T22:06:57.053Z,19.80
2022-09-04T22:13:32.891Z,19.80
2022-09-04T22:14:08.085Z,19.70
2022-09-04T22:17:13.962Z,19.60
2022-09-04T22:20:03.744Z,19.60
2022-09-04T22:23:41.494Z,19.50
2022-09-04T22:26:40.776Z,19.50
2022-09-04T22:29:48.177Z,19.40
2022-09-04T22:32:44.531Z,19.30
2022-09-04T22:36:02.829Z,19.20
2022-09-04T22:39:24.640Z,19.20
2022-09-04T22:42:32.226Z,19.10
2022-09-04T22:45:40.762Z,19.00
2022-09-04T22:49:08.160Z,19.00
2022-09-04T22:52:27.660Z,19.00
2022-09-04T22:56:23.496Z,18.90
2022-09-04T22:59:26.631Z,18.90
2022-09-04T23:03:06.666Z,18.80
2022-09-04T23:06:54.443Z,18.80
2022-09-04T23:13:56.780Z,18.70
2022-09-04T23:13:59.326Z,18.70
2022-09-04T23:16:09.633Z,18.60
2022-09-04T23:22:36.815Z,18.50
2022-09-04T23:26:44.303Z,18.50
2022-09-04T23:26:46.995Z,18.50
2022-09-04T23:29:08.480Z,18.50
2022-09-04T23:32:13.247Z,18.40
2022-09-04T23:35:15.841Z,18.30
2022-09-04T23:38:45.531Z,18.30
2022-09-04T23:42:11.384Z,18.30
2022-09-04T23:45:23.312Z,18.20
2022-09-04T23:48:28.958Z,18.20
2022-09-04T23:51:31.748Z,18.10
2022-09-04T23:54:49.074Z,18.10
2022-09-04T23:57:49.510Z,18.10
